Time;durP1;ratioP1;P1;durP2;ratioP2;P2;SDS_P1;SDS_P2;PMS_P1;PMS_P2;Temp;Humidity;BMP_temperature;BMP_pressure;BME280_temperature;BME280_humidity;BME280_pressure;Samples;Min_cycle;Max_cycle;Signal;HPM_P1;HPM_P2
2022/05/22 00:00:40;;;;;;;7.15;2.83;;;;;;;;;;5051738;28;20140;-77
2022/05/22 00:03:08;;;;;;;6.18;2.95;;;;;;;;;;5074373;28;20076;-77
2022/05/22 00:05:34;;;;;;;7.75;2.25;;;;;;;;;;5057300;28;20079;-77
2022/05/22 00:08:00;;;;;;;5.47;1.80;;;;;;;;;;5072626;28;20139;-77
2022/05/22 00:10:27;;;;;;;4.00;2.00;;;;;;;;;;5077658;28;20053;-77
2022/05/22 00:12:53;;;;;;;4.72;1.90;;;;;;;;;;5078960;28;20059;-77
2022/05/22 00:15:19;;;;;;;5.65;1.80;;;;;;;;;;5062775;28;20562;-77
2022/05/22 00:17:46;;;;;;;4.00;1.85;;;;;;;;;;5062730;28;20053;-77
2022/05/22 00:20:13;;;;;;;4.25;1.80;;;;;;;;;;5044903;28;20158;-77
2022/05/22 00:22:40;;;;;;;4.07;2.00;;;;;;;;;;5059254;28;20088;-77
2022/05/22 00:25:10;;;;;;;6.97;2.05;;;;;;;;;;5046075;28;20132;-77
2022/05/22 00:27:37;;;;;;;7.13;2.08;;;;;;;;;;5086704;28;20092;-77
2022/05/22 00:30:04;;;;;;;5.25;2.20;;;;;;;;;;5086452;28;20131;-77
2022/05/22 00:32:30;;;;;;;5.57;2.20;;;;;;;;;;5067154;28;20061;-77
2022/05/22 00:34:56;;;;;;;5.35;2.20;;;;;;;;;;5099492;28;20032;-78
2022/05/22 00:37:23;;;;;;;6.47;2.30;;;;;;;;;;5080209;28;20183;-78
2022/05/22 00:39:49;;;;;;;5.10;1.90;;;;;;;;;;5083223;28;20060;-77
2022/05/22 00:42:20;;;;;;;6.90;2.22;;;;;;;;;;5071541;28;20059;-78
2022/05/22 00:44:46;;;;;;;;;;;;;;;;;;5068832;28;20136;-78
2022/05/22 00:47:13;;;;;;;6.22;1.95;;;;;;;;;;5081226;28;47506;-78
2022/05/22 00:49:43;;;;;;;6.47;2.22;;;;;;;;;;5063224;28;20052;-78
2022/05/22 00:52:15;;;;;;;5.13;2.03;;;;;;;;;;5087111;28;20056;-78
2022/05/22 00:54:41;;;;;;;4.00;1.98;;;;;;;;;;5086115;28;20150;-78
2022/05/22 00:57:13;;;;;;;5.80;2.30;;;;;;;;;;5068719;28;20061;-78
2022/05/22 00:59:41;;;;;;;6.18;2.20;;;;;;;;;;5081899;28;20544;-78
2022/05/22 01:02:07;;;;;;;6.75;2.03;;;;;;;;;;5068981;28;21095;-78
2022/05/22 01:04:35;;;;;;;6.50;2.28;;;;;;;;;;5063945;28;20060;-78
2022/05/22 01:07:04;;;;;;;5.70;2.30;;;;;;;;;;5085835;28;20163;-78
2022/05/22 01:09:31;;;;;;;6.03;2.10;;;;;;;;;;5066962;28;20048;-78
2022/05/22 01:12:01;;;;;;;5.57;2.20;;;;;;;;;;5086879;28;20060;-78
2022/05/22 01:14:27;;;;;;;6.50;2.28;;;;;;;;;;5055005;28;20137;-78
2022/05/22 01:16:53;;;;;;;6.45;2.42;;;;;;;;;;5083252;28;20128;-78
2022/05/22 01:19:23;;;;;;;4.95;2.33;;;;;;;;;;5086112;28;20143;-78
2022/05/22 01:21:52;;;;;;;5.35;2.30;;;;;;;;;;5068441;28;20059;-78
2022/05/22 01:24:18;;;;;;;5.68;2.20;;;;;;;;;;5067407;28;20056;-78
2022/05/22 01:26:45;;;;;;;6.28;2.20;;;;;;;;;;5074202;28;20064;-78
2022/05/22 01:29:12;;;;;;;4.55;2.00;;;;;;;;;;5052023;28;20052;-78
2022/05/22 01:31:38;;;;;;;5.35;1.90;;;;;;;;;;5067933;28;20194;-78
2022/05/22 01:34:04;;;;;;;4.38;2.10;;;;;;;;;;5067175;28;20102;-78
2022/05/22 01:36:31;;;;;;;5.32;2.05;;;;;;;;;;5082876;28;20063;-78
2022/05/22 01:38:57;;;;;;;5.82;2.20;;;;;;;;;;5068515;28;20052;-78
2022/05/22 01:41:23;;;;;;;6.30;1.88;;;;;;;;;;5066438;28;20045;-78
2022/05/22 01:43:50;;;;;;;5.35;2.20;;;;;;;;;;5058598;28;20053;-78
2022/05/22 01:46:16;;;;;;;6.40;2.13;;;;;;;;;;5066488;28;20060;-78
2022/05/22 01:48:43;;;;;;;4.43;2.40;;;;;;;;;;5085553;28;20056;-78
2022/05/22 01:51:10;;;;;;;4.80;2.00;;;;;;;;;;5080610;28;20056;-78
2022/05/22 01:53:36;;;;;;;4.75;1.90;;;;;;;;;;5047916;28;20115;-78
2022/05/22 01:56:03;;;;;;;6.35;2.50;;;;;;;;;;5060890;28;20048;-78
2022/05/22 01:58:29;;;;;;;3.70;1.75;;;;;;;;;;5067739;28;20155;-78
2022/05/22 02:00:55;;;;;;;6.20;2.08;;;;;;;;;;5067472;28;20629;-78
2022/05/22 02:03:22;;;;;;;4.28;1.90;;;;;;;;;;5064803;28;20909;-78
2022/05/22 02:05:48;;;;;;;5.25;2.22;;;;;;;;;;5050448;28;20151;-78
2022/05/22 02:08:22;;;;;;;5.38;2.00;;;;;;;;;;5066649;28;20047;-78
2022/05/22 02:10:51;;;;;;;5.13;1.90;;;;;;;;;;5084934;28;20060;-78
2022/05/22 02:13:20;;;;;;;5.45;2.10;;;;;;;;;;5065035;28;20136;-78
2022/05/22 02:15:47;;;;;;;6.05;1.98;;;;;;;;;;5081836;28;20575;-78
2022/05/22 02:18:14;;;;;;;5.13;1.90;;;;;;;;;;5070756;28;20057;-77
2022/05/22 02:20:40;;;;;;;8.05;2.15;;;;;;;;;;5043422;28;20049;-78
2022/05/22 02:23:06;;;;;;;5.28;2.10;;;;;;;;;;5046192;28;20059;-78
2022/05/22 02:25:34;;;;;;;6.95;1.98;;;;;;;;;;5070012;28;20061;-78
2022/05/22 02:28:02;;;;;;;4.97;2.03;;;;;;;;;;5085797;28;20087;-78
2022/05/22 02:30:30;;;;;;;5.43;1.75;;;;;;;;;;5066636;28;20519;-78
2022/05/22 02:32:57;;;;;;;3.78;1.67;;;;;;;;;;5063502;28;20076;-78
2022/05/22 02:35:23;;;;;;;4.55;1.67;;;;;;;;;;5068326;28;20504;-78
2022/05/22 02:37:50;;;;;;;5.65;1.90;;;;;;;;;;5080753;28;20176;-79
2022/05/22 02:40:18;;;;;;;5.57;1.80;;;;;;;;;;5085980;28;20048;-78
2022/05/22 02:42:48;;;;;;;5.55;1.80;;;;;;;;;;5084645;28;20058;-78
2022/05/22 02:45:15;;;;;;;6.55;1.85;;;;;;;;;;5050162;28;20049;-77
2022/05/22 02:47:42;;;;;;;6.90;2.10;;;;;;;;;;5052175;28;20099;-78
2022/05/22 02:50:10;;;;;;;5.53;1.90;;;;;;;;;;5063264;28;20060;-78
2022/05/22 02:52:36;;;;;;;5.28;1.77;;;;;;;;;;5066842;28;20136;-77
2022/05/22 02:55:03;;;;;;;4.95;1.70;;;;;;;;;;5085506;28;20056;-78
2022/05/22 02:57:31;;;;;;;4.10;1.70;;;;;;;;;;5066916;28;20605;-78
2022/05/22 02:59:58;;;;;;;4.60;1.90;;;;;;;;;;5079838;28;20103;-78
2022/05/22 03:02:24;;;;;;;4.95;1.80;;;;;;;;;;5054218;28;20076;-78
2022/05/22 03:04:51;;;;;;;5.45;1.50;;;;;;;;;;5066807;28;20107;-78
2022/05/22 03:07:18;;;;;;;4.90;1.48;;;;;;;;;;5071134;28;20164;-78
2022/05/22 03:09:45;;;;;;;6.28;1.63;;;;;;;;;;5066576;28;20056;-78
2022/05/22 03:12:13;;;;;;;4.45;1.50;;;;;;;;;;5066770;28;20068;-78
2022/05/22 03:14:47;;;;;;;4.18;1.70;;;;;;;;;;5076535;28;20090;-78
2022/05/22 03:17:13;;;;;;;4.85;2.13;;;;;;;;;;5062148;28;20141;-78
2022/05/22 03:19:40;;;;;;;4.75;1.70;;;;;;;;;;5084652;28;20726;-77
2022/05/22 03:22:07;;;;;;;4.38;1.90;;;;;;;;;;5061398;28;20988;-78
2022/05/22 03:24:34;;;;;;;4.82;1.80;;;;;;;;;;5066190;28;20056;-78
2022/05/22 03:27:04;;;;;;;5.13;1.80;;;;;;;;;;5066990;28;20083;-78
2022/05/22 03:29:31;;;;;;;;;;;;;;;;;;5058216;28;20113;-78
2022/05/22 03:31:57;;;;;;;4.28;1.63;;;;;;;;;;5056869;28;46464;-78
2022/05/22 03:34:24;;;;;;;3.70;1.80;;;;;;;;;;5082294;28;20121;-78
2022/05/22 03:36:51;;;;;;;4.15;1.80;;;;;;;;;;5067358;28;20569;-78
2022/05/22 03:39:17;;;;;;;5.03;1.80;;;;;;;;;;5084965;28;20056;-78
2022/05/22 03:41:44;;;;;;;6.25;1.48;;;;;;;;;;5082097;28;20052;-78
2022/05/22 03:44:10;;;;;;;4.95;1.60;;;;;;;;;;5061579;28;20135;-78
2022/05/22 03:46:36;;;;;;;4.75;1.92;;;;;;;;;;5050987;28;20607;-78
2022/05/22 03:49:03;;;;;;;5.32;1.60;;;;;;;;;;5064339;28;20057;-78
2022/05/22 03:51:29;;;;;;;3.70;1.70;;;;;;;;;;5078347;28;20071;-78
2022/05/22 03:53:56;;;;;;;6.25;1.70;;;;;;;;;;5066372;28;20552;-77
2022/05/22 03:56:22;;;;;;;3.38;1.48;;;;;;;;;;5084352;28;20185;-77
2022/05/22 03:58:48;;;;;;;4.63;1.80;;;;;;;;;;5064915;28;20073;-78
2022/05/22 04:01:15;;;;;;;4.75;1.55;;;;;;;;;;5079954;28;20052;-78
2022/05/22 04:03:41;;;;;;;5.25;1.73;;;;;;;;;;5087328;28;20045;-78
2022/05/22 04:06:08;;;;;;;5.00;1.85;;;;;;;;;;5088667;28;20055;-78
2022/05/22 04:08:35;;;;;;;5.70;1.67;;;;;;;;;;5068718;28;20061;-78
2022/05/22 04:11:06;;;;;;;5.00;1.77;;;;;;;;;;5081805;28;20464;-78
2022/05/22 04:13:32;;;;;;;6.22;1.77;;;;;;;;;;5075260;28;20136;-78
2022/05/22 04:15:58;;;;;;;4.70;1.63;;;;;;;;;;5066685;28;20059;-77
2022/05/22 04:18:25;;;;;;;5.13;1.70;;;;;;;;;;5087106;28;20096;-77
2022/05/22 04:20:52;;;;;;;4.05;1.55;;;;;;;;;;5087894;28;20082;-77
2022/05/22 04:26:03;;;;;;;3.20;1.45;;;;;;;;;;5080914;28;20556;-78
2022/05/22 04:28:30;;;;;;;3.75;1.40;;;;;;;;;;5058928;28;20052;-78
2022/05/22 04:30:56;;;;;;;5.72;2.00;;;;;;;;;;5069575;28;20052;-78
2022/05/22 04:33:23;;;;;;;5.15;1.48;;;;;;;;;;5064644;28;20756;-78
2022/05/22 04:35:50;;;;;;;3.58;1.70;;;;;;;;;;5068130;28;20068;-78
2022/05/22 04:38:16;;;;;;;4.45;1.77;;;;;;;;;;5050207;28;20143;-78
2022/05/22 04:40:43;;;;;;;4.88;1.55;;;;;;;;;;5047635;28;20160;-78
2022/05/22 04:43:12;;;;;;;6.97;1.80;;;;;;;;;;5061207;28;20147;-78
2022/05/22 04:45:39;;;;;;;4.13;1.63;;;;;;;;;;5053525;28;20542;-78
2022/05/22 04:48:06;;;;;;;4.75;1.85;;;;;;;;;;5065858;28;20079;-78
2022/05/22 04:50:33;;;;;;;4.35;1.70;;;;;;;;;;5068972;28;20978;-78
2022/05/22 04:52:59;;;;;;;3.95;1.80;;;;;;;;;;5055516;28;20051;-77
2022/05/22 04:55:26;;;;;;;7.15;1.88;;;;;;;;;;5068019;28;20135;-78
2022/05/22 04:57:52;;;;;;;13.85;2.28;;;;;;;;;;5072508;28;20523;-78
2022/05/22 05:00:19;;;;;;;5.05;1.73;;;;;;;;;;5074724;28;20041;-78
2022/05/22 05:02:45;;;;;;;5.85;1.95;;;;;;;;;;5059402;28;20053;-78
2022/05/22 05:05:11;;;;;;;4.72;1.90;;;;;;;;;;5067965;28;20044;-78
2022/05/22 05:07:38;;;;;;;5.63;1.83;;;;;;;;;;5086336;28;20063;-78
2022/05/22 05:10:05;;;;;;;6.47;2.05;;;;;;;;;;5069018;28;20052;-78
2022/05/22 05:12:33;;;;;;;10.25;2.35;;;;;;;;;;5075239;28;20131;-78
2022/05/22 05:15:00;;;;;;;5.72;1.73;;;;;;;;;;5051538;28;20060;-78
2022/05/22 05:17:26;;;;;;;8.48;2.30;;;;;;;;;;5065800;28;20060;-78
2022/05/22 05:19:52;;;;;;;5.60;2.45;;;;;;;;;;5086737;28;20146;-78
2022/05/22 05:22:19;;;;;;;8.10;2.30;;;;;;;;;;5084560;28;20063;-78
2022/05/22 05:24:45;;;;;;;4.32;2.40;;;;;;;;;;5071104;28;20101;-79
2022/05/22 05:27:12;;;;;;;6.70;2.50;;;;;;;;;;5068198;28;20139;-79
2022/05/22 05:29:58;;;;;;;9.10;2.97;;;;;;;;;;5069130;28;20055;-78
2022/05/22 05:32:25;;;;;;;6.82;3.20;;;;;;;;;;5055578;28;20062;-78
2022/05/22 05:34:55;;;;;;;12.75;3.60;;;;;;;;;;5067061;28;20080;-77
2022/05/22 05:37:21;;;;;;;9.68;3.55;;;;;;;;;;5072170;28;20055;-77
2022/05/22 05:39:48;;;;;;;6.85;3.17;;;;;;;;;;5067142;28;20552;-77
2022/05/22 05:42:14;;;;;;;14.52;4.70;;;;;;;;;;5067225;28;20052;-77
2022/05/22 05:44:41;;;;;;;10.75;4.35;;;;;;;;;;5060029;28;20078;-77
2022/05/22 05:47:08;;;;;;;9.77;3.78;;;;;;;;;;5079179;28;20055;-77
2022/05/22 05:49:36;;;;;;;8.65;3.70;;;;;;;;;;5081975;28;20155;-77
2022/05/22 05:52:02;;;;;;;11.32;4.38;;;;;;;;;;5067247;28;20080;-77
2022/05/22 05:54:36;;;;;;;7.82;4.43;;;;;;;;;;5069394;28;20922;-77
2022/05/22 05:57:03;;;;;;;8.88;4.57;;;;;;;;;;5072789;28;20056;-77
2022/05/22 05:59:32;;;;;;;8.75;4.03;;;;;;;;;;5083674;28;20107;-77
2022/05/22 06:01:59;;;;;;;11.95;5.05;;;;;;;;;;5063636;28;20144;-77
2022/05/22 06:04:25;;;;;;;11.05;4.43;;;;;;;;;;5065007;28;20053;-77
2022/05/22 06:06:52;;;;;;;9.73;4.10;;;;;;;;;;5074740;28;20429;-78
2022/05/22 06:09:18;;;;;;;8.20;4.65;;;;;;;;;;5076190;28;20063;-78
2022/05/22 06:11:44;;;;;;;10.32;5.57;;;;;;;;;;5067133;28;20160;-78
2022/05/22 06:14:11;;;;;;;15.50;6.07;;;;;;;;;;5074050;28;20063;-78
2022/05/22 06:16:37;;;;;;;12.77;5.65;;;;;;;;;;5084326;28;20052;-77
2022/05/22 06:19:04;;;;;;;14.27;5.93;;;;;;;;;;5064634;28;20525;-78
2022/05/22 06:21:30;;;;;;;10.80;5.18;;;;;;;;;;5060866;28;20063;-77
2022/05/22 06:23:56;;;;;;;15.27;6.10;;;;;;;;;;5083240;28;20580;-78
2022/05/22 06:26:23;;;;;;;11.10;5.75;;;;;;;;;;5081621;28;20529;-78
2022/05/22 06:28:49;;;;;;;11.93;5.35;;;;;;;;;;5070684;28;20063;-78
2022/05/22 06:31:15;;;;;;;13.55;5.15;;;;;;;;;;5073868;28;20405;-78
2022/05/22 06:33:42;;;;;;;12.98;5.15;;;;;;;;;;5071745;28;20057;-78
2022/05/22 06:36:14;;;;;;;14.00;5.22;;;;;;;;;;5077981;28;20095;-78
2022/05/22 06:41:26;;;;;;;11.50;5.35;;;;;;;;;;5085787;28;20539;-78
2022/05/22 06:43:53;;;;;;;11.40;5.00;;;;;;;;;;5064689;28;20772;-78
2022/05/22 06:46:25;;;;;;;15.07;5.00;;;;;;;;;;5076306;28;20140;-77
2022/05/22 06:48:51;;;;;;;13.50;5.03;;;;;;;;;;5085629;28;20878;-78
2022/05/22 06:51:17;;;;;;;16.52;5.78;;;;;;;;;;5064908;28;20055;-78
2022/05/22 06:53:44;;;;;;;10.80;5.32;;;;;;;;;;5082783;28;20583;-78
2022/05/22 06:56:10;;;;;;;13.73;5.53;;;;;;;;;;5063153;28;20052;-78
2022/05/22 06:58:37;;;;;;;12.40;5.47;;;;;;;;;;5065589;28;20045;-80
2022/05/22 07:01:03;;;;;;;11.30;5.35;;;;;;;;;;5073861;28;20080;-78
2022/05/22 07:03:30;;;;;;;11.80;5.38;;;;;;;;;;5079370;28;20563;-78
2022/05/22 07:05:56;;;;;;;11.32;5.10;;;;;;;;;;5081008;28;20052;-78
2022/05/22 07:08:22;;;;;;;15.85;5.78;;;;;;;;;;5077023;28;20167;-77
2022/05/22 07:13:34;;;;;;;11.30;5.85;;;;;;;;;;5075787;28;20140;-78
2022/05/22 07:16:01;;;;;;;10.43;5.35;;;;;;;;;;5059011;28;20056;-78
2022/05/22 07:18:48;;;;;;;10.43;4.80;;;;;;;;;;5065262;28;20057;-77
2022/05/22 07:21:14;;;;;;;11.73;5.10;;;;;;;;;;5078985;28;20523;-78
2022/05/22 07:23:40;;;;;;;10.98;4.85;;;;;;;;;;5065138;28;20139;-78
2022/05/22 07:26:06;;;;;;;8.15;3.80;;;;;;;;;;5079957;28;20619;-77
2022/05/22 07:28:34;;;;;;;16.60;4.40;;;;;;;;;;5078423;28;20494;-78
2022/05/22 07:31:00;;;;;;;9.70;3.80;;;;;;;;;;5062057;28;20056;-78
2022/05/22 07:33:26;;;;;;;11.85;3.92;;;;;;;;;;5076776;28;20516;-77
2022/05/22 07:35:57;;;;;;;12.07;4.30;;;;;;;;;;5081688;28;20245;-77
2022/05/22 07:38:24;;;;;;;8.82;3.67;;;;;;;;;;5080778;28;20619;-77
2022/05/22 07:40:51;;;;;;;9.13;3.10;;;;;;;;;;5062941;28;20049;-77
2022/05/22 07:43:18;;;;;;;10.25;2.83;;;;;;;;;;5079427;28;20065;-77
2022/05/22 07:45:44;;;;;;;8.27;3.00;;;;;;;;;;5065880;28;20048;-77
2022/05/22 07:48:13;;;;;;;8.85;2.90;;;;;;;;;;5079028;28;20052;-78
2022/05/22 07:50:39;;;;;;;8.80;2.80;;;;;;;;;;5064051;28;20084;-78
2022/05/22 07:53:06;;;;;;;9.90;2.70;;;;;;;;;;5064241;28;20103;-79
2022/05/22 07:55:32;;;;;;;10.98;3.30;;;;;;;;;;5080495;28;20145;-79
2022/05/22 07:57:59;;;;;;;8.48;2.55;;;;;;;;;;5060056;28;20516;-78
2022/05/22 08:00:25;;;;;;;9.32;2.95;;;;;;;;;;5076357;28;20060;-78
2022/05/22 08:02:51;;;;;;;10.90;3.00;;;;;;;;;;5060515;28;20064;-78
2022/05/22 08:05:19;;;;;;;11.48;3.38;;;;;;;;;;5062471;28;20146;-79
2022/05/22 08:07:46;;;;;;;6.75;2.67;;;;;;;;;;5075559;28;20179;-77
2022/05/22 08:10:13;;;;;;;7.55;2.75;;;;;;;;;;5061759;28;20129;-77
2022/05/22 08:12:41;;;;;;;10.85;4.18;;;;;;;;;;5052078;28;20695;-77
2022/05/22 08:15:09;;;;;;;8.05;2.97;;;;;;;;;;5077885;28;20134;-77
2022/05/22 08:17:36;;;;;;;9.93;3.03;;;;;;;;;;5074639;28;20112;-77
2022/05/22 08:20:14;;;;;;;9.20;2.78;;;;;;;;;;5062355;28;20428;-77
2022/05/22 08:22:40;;;;;;;13.02;3.13;;;;;;;;;;5065991;28;20144;-78
2022/05/22 08:25:08;;;;;;;9.20;2.67;;;;;;;;;;5083585;28;21209;-78
2022/05/22 08:27:34;;;;;;;11.20;3.00;;;;;;;;;;5059789;28;20586;-78
2022/05/22 08:30:00;;;;;;;6.63;2.40;;;;;;;;;;5062208;28;20547;-78
2022/05/22 08:32:27;;;;;;;8.18;2.42;;;;;;;;;;5074348;28;20059;-78
2022/05/22 08:34:54;;;;;;;8.35;2.25;;;;;;;;;;5082482;28;20089;-77
2022/05/22 08:37:20;;;;;;;8.02;2.38;;;;;;;;;;5082327;28;20114;-77
2022/05/22 08:39:47;;;;;;;7.55;2.20;;;;;;;;;;5064851;28;20041;-77
2022/05/22 08:42:15;;;;;;;8.15;2.25;;;;;;;;;;5049940;28;20048;-77
2022/05/22 08:44:42;;;;;;;7.38;2.15;;;;;;;;;;5048384;28;20935;-76
2022/05/22 08:47:21;;;;;;;8.93;2.22;;;;;;;;;;5060894;28;20138;-77
2022/05/22 08:49:48;;;;;;;8.18;2.17;;;;;;;;;;5048443;28;20099;-76
2022/05/22 08:52:20;;;;;;;7.00;1.98;;;;;;;;;;5084768;28;20080;-77
2022/05/22 08:54:49;;;;;;;6.07;2.22;;;;;;;;;;5068346;28;20080;-77
2022/05/22 09:00:06;;;;;;;7.43;2.58;;;;;;;;;;5080789;28;20049;-77
2022/05/22 09:02:35;;;;;;;7.82;2.72;;;;;;;;;;5075179;28;20063;-77
2022/05/22 09:05:07;;;;;;;6.80;2.28;;;;;;;;;;5049825;28;20075;-77
2022/05/22 09:07:42;;;;;;;8.93;2.50;;;;;;;;;;5063641;28;20087;-77
2022/05/22 09:10:21;;;;;;;6.93;2.10;;;;;;;;;;5071967;28;20057;-76
2022/05/22 09:13:10;;;;;;;8.25;2.60;;;;;;;;;;5057758;28;20048;-77
2022/05/22 09:16:08;;;;;;;6.40;2.47;;;;;;;;;;5053687;28;20052;-77
2022/05/22 09:18:50;;;;;;;6.07;2.00;;;;;;;;;;5075119;28;20079;-77
2022/05/22 09:21:16;;;;;;;6.15;1.90;;;;;;;;;;5082752;28;20135;-77
2022/05/22 09:23:51;;;;;;;6.15;1.95;;;;;;;;;;5084995;28;20059;-76
2022/05/22 09:26:26;;;;;;;7.65;2.40;;;;;;;;;;5077701;28;20138;-76
2022/05/22 09:29:12;;;;;;;7.35;1.85;;;;;;;;;;5061293;28;20132;-77
2022/05/22 09:31:38;;;;;;;6.47;1.63;;;;;;;;;;5061499;28;20147;-77
2022/05/22 09:34:05;;;;;;;7.57;2.10;;;;;;;;;;5082721;28;20146;-77
2022/05/22 09:36:40;;;;;;;4.60;1.60;;;;;;;;;;5055583;28;20077;-77
2022/05/22 09:39:35;;;;;;;9.35;1.90;;;;;;;;;;5064136;28;20060;-77
2022/05/22 09:42:17;;;;;;;6.75;2.03;;;;;;;;;;5070040;28;20055;-77
2022/05/22 09:44:50;;;;;;;7.63;1.70;;;;;;;;;;5074025;28;20102;-77
2022/05/22 09:47:19;;;;;;;6.07;1.85;;;;;;;;;;5082522;28;20573;-78
2022/05/22 09:49:51;;;;;;;7.80;1.63;;;;;;;;;;5079658;28;20939;-78
2022/05/22 09:52:18;;;;;;;6.47;1.70;;;;;;;;;;5068212;28;20052;-77
2022/05/22 09:55:02;;;;;;;5.30;1.60;;;;;;;;;;5086124;28;20084;-77
2022/05/22 09:57:34;;;;;;;5.70;1.50;;;;;;;;;;5060854;28;20147;-77
2022/05/22 10:00:03;;;;;;;6.78;1.73;;;;;;;;;;5081432;28;20631;-77
2022/05/22 10:02:29;;;;;;;7.07;1.50;;;;;;;;;;5065868;28;20132;-77
2022/05/22 10:04:58;;;;;;;7.90;1.70;;;;;;;;;;5067427;28;20053;-77
2022/05/22 10:07:32;;;;;;;6.95;1.85;;;;;;;;;;5068045;28;20060;-77
2022/05/22 10:10:17;;;;;;;7.65;1.55;;;;;;;;;;5054454;28;20045;-77
2022/05/22 10:12:48;;;;;;;6.38;1.55;;;;;;;;;;5075779;28;20650;-77
2022/05/22 10:15:23;;;;;;;7.40;1.80;;;;;;;;;;5062401;28;20048;-77
2022/05/22 10:17:53;;;;;;;5.72;1.63;;;;;;;;;;5076534;28;20415;-77
2022/05/22 10:20:52;;;;;;;5.82;1.90;;;;;;;;;;5069327;28;20115;-76
2022/05/22 10:23:18;;;;;;;7.97;2.07;;;;;;;;;;5024429;28;20140;-78
2022/05/22 10:25:50;;;;;;;6.18;1.90;;;;;;;;;;5075934;28;20168;-77
2022/05/22 10:28:18;;;;;;;7.88;2.00;;;;;;;;;;5078392;28;20122;-77
2022/05/22 10:30:59;;;;;;;4.82;1.50;;;;;;;;;;5046943;28;20053;-77
2022/05/22 10:33:32;;;;;;;5.60;1.60;;;;;;;;;;5052346;28;20052;-77
2022/05/22 10:36:11;;;;;;;6.00;2.10;;;;;;;;;;5073834;28;20060;-77
2022/05/22 10:38:41;;;;;;;5.07;1.65;;;;;;;;;;5078407;28;20105;-77
2022/05/22 10:43:52;;;;;;;4.78;1.30;;;;;;;;;;5079376;28;48351;-77
2022/05/22 10:46:19;;;;;;;4.60;1.38;;;;;;;;;;5056067;28;20155;-77
2022/05/22 10:48:50;;;;;;;6.20;1.70;;;;;;;;;;5078251;28;20049;-77
2022/05/22 10:51:21;;;;;;;5.20;1.40;;;;;;;;;;5052616;28;20062;-77
2022/05/22 10:53:52;;;;;;;5.85;1.52;;;;;;;;;;5037643;28;20143;-77
2022/05/22 10:56:21;;;;;;;6.20;1.80;;;;;;;;;;5072295;28;20807;-77
2022/05/22 10:58:51;;;;;;;5.35;1.73;;;;;;;;;;5074608;28;20048;-77
2022/05/22 11:01:19;;;;;;;3.60;1.30;;;;;;;;;;5051172;28;20164;-77
2022/05/22 11:03:46;;;;;;;6.32;2.17;;;;;;;;;;5077400;28;20057;-77
2022/05/22 11:06:20;;;;;;;6.10;1.67;;;;;;;;;;5061242;28;20048;-77
2022/05/22 11:08:50;;;;;;;5.07;1.40;;;;;;;;;;5057284;28;20145;-77
2022/05/22 11:11:23;;;;;;;7.75;1.70;;;;;;;;;;5071986;28;20247;-78
2022/05/22 11:13:53;;;;;;;5.93;2.00;;;;;;;;;;5071687;28;20092;-77
2022/05/22 11:16:25;;;;;;;6.35;2.00;;;;;;;;;;5072221;28;20163;-78
2022/05/22 11:19:21;;;;;;;6.35;2.13;;;;;;;;;;5082824;28;20052;-78
2022/05/22 11:21:55;;;;;;;6.45;2.25;;;;;;;;;;5044269;28;20056;-78
2022/05/22 11:24:27;;;;;;;5.55;1.98;;;;;;;;;;5059807;28;20060;-78
2022/05/22 11:27:06;;;;;;;6.97;1.95;;;;;;;;;;5079552;28;20099;-78
2022/05/22 11:29:51;;;;;;;6.75;1.92;;;;;;;;;;5064377;28;20516;-78
2022/05/22 11:32:36;;;;;;;6.57;2.10;;;;;;;;;;5073350;28;20048;-77
2022/05/22 11:35:05;;;;;;;6.72;2.00;;;;;;;;;;5064057;28;20063;-77
2022/05/22 11:37:37;;;;;;;7.15;2.28;;;;;;;;;;5084235;28;20083;-78
2022/05/22 11:40:24;;;;;;;6.70;1.73;;;;;;;;;;5063770;28;20048;-78
2022/05/22 11:43:09;;;;;;;4.80;1.38;;;;;;;;;;5063204;28;20131;-78
2022/05/22 11:45:58;;;;;;;8.18;1.73;;;;;;;;;;5076669;28;20056;-80
2022/05/22 11:48:25;;;;;;;7.88;2.15;;;;;;;;;;5019099;28;20068;-79
2022/05/22 11:51:14;;;;;;;6.78;2.10;;;;;;;;;;5049192;28;20071;-79
2022/05/22 11:53:56;;;;;;;5.47;2.00;;;;;;;;;;5082707;28;20048;-79
2022/05/22 11:56:36;;;;;;;7.13;1.83;;;;;;;;;;5063637;28;20108;-79
2022/05/22 11:59:24;;;;;;;5.93;1.75;;;;;;;;;;5073394;28;20973;-78
2022/05/22 12:02:13;;;;;;;5.95;1.92;;;;;;;;;;5085236;28;20084;-79
2022/05/22 12:04:43;;;;;;;6.07;2.20;;;;;;;;;;5063444;28;20059;-81
2022/05/22 12:07:09;;;;;;;8.50;2.03;;;;;;;;;;5063962;28;20110;-78
2022/05/22 12:09:57;;;;;;;7.45;2.30;;;;;;;;;;5074268;28;20122;-78
2022/05/22 12:12:45;;;;;;;8.32;2.55;;;;;;;;;;5061989;28;20155;-78
2022/05/22 12:15:26;;;;;;;6.85;2.00;;;;;;;;;;5076609;28;20634;-78
2022/05/22 12:17:57;;;;;;;7.85;2.30;;;;;;;;;;5056618;28;20144;-79
2022/05/22 12:20:26;;;;;;;6.75;2.30;;;;;;;;;;5059636;28;20084;-78
2022/05/22 12:23:15;;;;;;;8.73;2.72;;;;;;;;;;5065765;28;20144;-78
2022/05/22 12:25:48;;;;;;;6.53;2.70;;;;;;;;;;5083156;28;20057;-79
2022/05/22 12:28:27;;;;;;;6.28;2.30;;;;;;;;;;5078868;28;20143;-78
2022/05/22 12:30:55;;;;;;;7.63;2.40;;;;;;;;;;5076345;28;20088;-78
2022/05/22 12:33:23;;;;;;;8.45;2.70;;;;;;;;;;5067440;28;20052;-78
2022/05/22 12:35:50;;;;;;;6.68;2.30;;;;;;;;;;5066582;28;20076;-79
2022/05/22 12:38:17;;;;;;;6.40;2.90;;;;;;;;;;5084084;28;20992;-78
2022/05/22 12:41:03;;;;;;;8.38;3.45;;;;;;;;;;5085886;28;20171;-78
2022/05/22 12:43:30;;;;;;;6.88;3.35;;;;;;;;;;5079345;28;20072;-78
2022/05/22 12:45:59;;;;;;;9.98;3.38;;;;;;;;;;5076522;28;20048;-78
2022/05/22 12:48:32;;;;;;;6.93;3.17;;;;;;;;;;5074054;28;20126;-78
2022/05/22 12:51:10;;;;;;;9.80;3.72;;;;;;;;;;5075904;28;21151;-77
2022/05/22 12:53:41;;;;;;;7.50;3.53;;;;;;;;;;5055912;28;20184;-77
2022/05/22 12:56:17;;;;;;;10.23;3.55;;;;;;;;;;5059690;28;20053;-78
2022/05/22 12:58:49;;;;;;;9.23;2.92;;;;;;;;;;5070786;28;20906;-77
2022/05/22 13:01:39;;;;;;;8.60;3.33;;;;;;;;;;5067799;28;20433;-77
2022/05/22 13:04:15;;;;;;;11.98;4.28;;;;;;;;;;5034978;28;20147;-77
2022/05/22 13:07:00;;;;;;;8.88;3.85;;;;;;;;;;5048867;28;20064;-78
2022/05/22 13:09:38;;;;;;;9.48;3.75;;;;;;;;;;5075215;28;20934;-78
2022/05/22 13:12:07;;;;;;;9.43;3.45;;;;;;;;;;5065356;28;20156;-78
2022/05/22 13:14:40;;;;;;;7.95;3.88;;;;;;;;;;5057498;28;20052;-78
2022/05/22 13:17:08;;;;;;;7.50;3.90;;;;;;;;;;5084220;28;20859;-76
2022/05/22 13:19:34;;;;;;;10.88;3.72;;;;;;;;;;5082768;28;20052;-77
2022/05/22 13:22:09;;;;;;;9.38;3.80;;;;;;;;;;5047175;28;20520;-79
2022/05/22 13:24:38;;;;;;;6.60;3.25;;;;;;;;;;5080712;28;20061;-77
2022/05/22 13:27:21;;;;;;;10.98;3.40;;;;;;;;;;5076017;28;20496;-77
2022/05/22 13:29:59;;;;;;;10.18;3.40;;;;;;;;;;5047439;28;20060;-77
2022/05/22 13:32:34;;;;;;;8.48;3.10;;;;;;;;;;5076253;28;20087;-77
2022/05/22 13:35:10;;;;;;;9.10;3.25;;;;;;;;;;5060270;28;20052;-78
2022/05/22 13:37:37;;;;;;;10.75;3.65;;;;;;;;;;5057484;28;20531;-78
2022/05/22 13:40:05;;;;;;;8.57;3.60;;;;;;;;;;5079922;28;20063;-77
2022/05/22 13:43:03;;;;;;;7.10;3.38;;;;;;;;;;5080076;28;20520;-77
2022/05/22 13:45:56;;;;;;;7.78;3.63;;;;;;;;;;5077279;28;20132;-78
2022/05/22 13:48:28;;;;;;;10.25;3.15;;;;;;;;;;5047455;28;20106;-78
2022/05/22 13:54:07;;;;;;;9.80;4.30;;;;;;;;;;5081810;28;20053;-78
2022/05/22 13:56:39;;;;;;;8.32;3.92;;;;;;;;;;5075652;28;20088;-77
2022/05/22 13:59:18;;;;;;;8.10;3.70;;;;;;;;;;5075819;28;20515;-78
2022/05/22 14:01:45;;;;;;;8.02;4.30;;;;;;;;;;5083244;28;20144;-78
2022/05/22 14:04:12;;;;;;;9.48;4.07;;;;;;;;;;5072702;28;20052;-78
2022/05/22 14:06:38;;;;;;;10.88;4.05;;;;;;;;;;5079070;28;20143;-77
2022/05/22 14:09:05;;;;;;;8.45;3.22;;;;;;;;;;5083571;28;20052;-77
2022/05/22 14:11:36;;;;;;;7.82;3.28;;;;;;;;;;5072499;28;20059;-78
2022/05/22 14:14:03;;;;;;;6.90;3.10;;;;;;;;;;5077659;28;20921;-78
2022/05/22 14:16:35;;;;;;;7.28;3.13;;;;;;;;;;5058628;28;20948;-78
2022/05/22 14:19:08;;;;;;;8.77;3.58;;;;;;;;;;5070620;28;20080;-78
2022/05/22 14:21:36;;;;;;;7.90;3.53;;;;;;;;;;5081613;28;20052;-78
2022/05/22 14:26:50;;;;;;;9.05;4.18;;;;;;;;;;5068042;28;20581;-78
2022/05/22 14:29:22;;;;;;;10.45;3.85;;;;;;;;;;5059546;28;20054;-80
2022/05/22 14:31:58;;;;;;;8.55;3.80;;;;;;;;;;5069240;28;20056;-78
2022/05/22 14:34:31;;;;;;;9.43;4.13;;;;;;;;;;5065298;28;20052;-79
2022/05/22 14:36:59;;;;;;;11.63;4.55;;;;;;;;;;5075745;28;20136;-78
2022/05/22 14:39:27;;;;;;;9.38;4.50;;;;;;;;;;5084443;28;20052;-78
2022/05/22 14:41:54;;;;;;;10.52;4.25;;;;;;;;;;5078878;28;20147;-79
2022/05/22 14:47:33;;;;;;;7.30;3.70;;;;;;;;;;5074246;28;20053;-78
2022/05/22 14:50:03;;;;;;;10.25;3.90;;;;;;;;;;5065872;28;20072;-79
2022/05/22 14:52:42;;;;;;;8.85;4.22;;;;;;;;;;5041583;28;20056;-79
2022/05/22 14:55:13;;;;;;;;;;;;;;;;;;5063687;28;20060;-78
2022/05/22 14:58:25;;;;;;;10.50;4.10;;;;;;;;;;5080942;28;43177;-78
2022/05/22 15:00:57;;;;;;;10.82;4.07;;;;;;;;;;5063602;28;20128;-79
2022/05/22 15:03:42;;;;;;;15.68;9.00;;;;;;;;;;5063298;28;21065;-78
2022/05/22 15:06:21;;;;;;;9.77;3.80;;;;;;;;;;5059922;28;20491;-79
2022/05/22 15:09:01;;;;;;;9.37;3.87;;;;;;;;;;5065812;28;20052;-79
2022/05/22 15:11:40;;;;;;;7.40;3.30;;;;;;;;;;5057294;28;20078;-79
2022/05/22 15:14:18;;;;;;;8.15;3.40;;;;;;;;;;5087578;28;20100;-79
2022/05/22 15:16:59;;;;;;;8.10;4.10;;;;;;;;;;5070727;28;20057;-79
2022/05/22 15:19:49;;;;;;;11.27;4.43;;;;;;;;;;5091519;28;20266;-79
2022/05/22 15:25:29;;;;;;;8.57;4.07;;;;;;;;;;5091322;28;20052;-78